createdAt,value
2019-05-22T00:01:51.973Z,18.10
2019-05-22T00:04:30.853Z,18.10
2019-05-22T00:07:03.470Z,18.10
2019-05-22T00:09:39.936Z,18.10
2019-05-22T00:12:13.853Z,18.10
2019-05-22T00:14:43.017Z,18.10
2019-05-22T00:17:15.383Z,18.10
2019-05-22T00:19:46.180Z,18.10
2019-05-22T00:22:24.525Z,18.10
2019-05-22T00:24:54.659Z,18.10
2019-05-22T00:27:25.350Z,18.10
2019-05-22T00:29:54.708Z,18.10
2019-05-22T00:32:25.063Z,18.10
2019-05-22T00:34:55.533Z,18.10
2019-05-22T00:37:25.777Z,18.10
2019-05-22T00:39:57.234Z,18.10
2019-05-22T00:42:27.952Z,18.10
2019-05-22T00:44:58.798Z,18.10
2019-05-22T00:47:30.759Z,18.10
2019-05-22T00:50:03.740Z,18.10
2019-05-22T00:52:45.197Z,18.10
2019-05-22T00:55:34.660Z,18.10
2019-05-22T00:58:11.762Z,18.10
2019-05-22T01:00:50.541Z,18.10
2019-05-22T01:03:22.705Z,18.10
2019-05-22T01:05:51.946Z,18.10
2019-05-22T01:08:22.093Z,18.10
2019-05-22T01:10:53.100Z,18.10
2019-05-22T01:13:22.691Z,18.10
2019-05-22T01:15:52.386Z,18.10
2019-05-22T01:18:23.350Z,18.10
2019-05-22T01:20:53.106Z,18.10
2019-05-22T01:23:23.831Z,18.10
2019-05-22T01:25:54.544Z,18.10
2019-05-22T01:28:24.541Z,18.10
2019-05-22T01:31:15.394Z,18.10
2019-05-22T01:33:54.597Z,18.10
2019-05-22T01:36:41.122Z,18.10
2019-05-22T01:39:39.214Z,18.10
2019-05-22T01:42:11.129Z,18.10
2019-05-22T01:44:40.527Z,18.10
2019-05-22T01:47:15.561Z,18.10
2019-05-22T01:49:51.835Z,18.10
2019-05-22T01:52:21.413Z,18.10
2019-05-22T01:54:52.244Z,18.10
2019-05-22T01:57:22.713Z,18.10
2019-05-22T01:59:52.656Z,18.10
2019-05-22T02:02:23.644Z,18.10
2019-05-22T02:04:53.032Z,18.00
2019-05-22T02:07:22.087Z,18.10
2019-05-22T02:09:52.232Z,18.10
2019-05-22T02:12:28.929Z,18.10
2019-05-22T02:14:58.367Z,18.10
2019-05-22T02:17:31.650Z,18.10
2019-05-22T02:20:00.621Z,18.10
2019-05-22T02:22:30.601Z,18.10
2019-05-22T02:24:59.822Z,18.10
2019-05-22T02:27:30.086Z,18.10
2019-05-22T02:30:00.734Z,18.10
2019-05-22T02:32:29.944Z,18.10
2019-05-22T02:35:01.029Z,18.10
2019-05-22T02:37:32.675Z,18.10
2019-05-22T02:40:02.693Z,18.00
2019-05-22T02:42:33.026Z,18.00
2019-05-22T02:45:03.925Z,18.10
2019-05-22T02:47:34.249Z,18.10
2019-05-22T02:50:05.018Z,18.00
2019-05-22T02:52:34.305Z,18.10
2019-05-22T02:55:04.444Z,18.00
2019-05-22T02:57:33.895Z,18.00
2019-05-22T03:00:03.217Z,18.00
2019-05-22T03:02:33.649Z,18.00
2019-05-22T03:05:08.982Z,18.00
2019-05-22T03:07:39.661Z,18.00
2019-05-22T03:10:12.753Z,18.00
2019-05-22T03:12:42.789Z,18.00
2019-05-22T03:15:14.067Z,18.00
2019-05-22T03:17:45.610Z,18.00
2019-05-22T03:20:19.269Z,18.00
2019-05-22T03:23:38.846Z,18.00
2019-05-22T03:26:09.664Z,18.00
2019-05-22T03:28:40.144Z,18.00
2019-05-22T03:31:10.114Z,18.00
2019-05-22T03:33:39.852Z,18.00
2019-05-22T03:36:10.512Z,18.00
2019-05-22T03:38:41.006Z,18.00
2019-05-22T03:41:12.627Z,18.00
2019-05-22T03:43:43.964Z,18.00
2019-05-22T03:46:42.671Z,18.00
2019-05-22T03:49:27.890Z,18.00
2019-05-22T03:51:44.557Z,18.00
2019-05-22T03:54:14.371Z,18.00
2019-05-22T03:56:43.941Z,18.00
2019-05-22T03:59:13.547Z,18.00
2019-05-22T04:01:44.888Z,18.00
2019-05-22T04:04:32.295Z,18.00
2019-05-22T04:07:01.779Z,18.00
2019-05-22T04:09:31.815Z,18.00
2019-05-22T04:12:01.876Z,18.00
2019-05-22T04:14:34.828Z,18.00
2019-05-22T04:17:05.765Z,18.00
2019-05-22T04:19:48.805Z,18.00
2019-05-22T04:22:06.062Z,18.00
2019-05-22T04:24:35.191Z,18.00
2019-05-22T04:27:05.222Z,18.00
2019-05-22T04:29:34.356Z,18.00
2019-05-22T04:32:10.913Z,18.00
2019-05-22T04:34:40.226Z,18.00
2019-05-22T04:37:10.571Z,18.00
2019-05-22T04:39:41.405Z,18.00
2019-05-22T04:42:11.888Z,18.00
2019-05-22T04:44:44.577Z,18.00
2019-05-22T04:47:13.634Z,18.00
2019-05-22T04:49:43.033Z,18.00
2019-05-22T04:52:12.273Z,18.00
2019-05-22T04:54:41.397Z,18.00
2019-05-22T04:57:11.066Z,18.00
2019-05-22T04:59:40.205Z,18.00
2019-05-22T05:02:10.030Z,18.00
2019-05-22T05:04:39.393Z,18.00
2019-05-22T05:07:08.643Z,18.00
2019-05-22T05:09:37.954Z,18.00
2019-05-22T05:12:07.491Z,18.00
2019-05-22T05:14:36.534Z,18.00
2019-05-22T05:17:07.377Z,18.00
2019-05-22T05:19:36.426Z,18.00
2019-05-22T05:22:05.670Z,18.00
2019-05-22T05:24:35.008Z,18.00
2019-05-22T05:27:04.672Z,18.00
2019-05-22T05:29:34.396Z,18.00
2019-05-22T05:32:03.722Z,18.00
2019-05-22T05:34:51.037Z,18.00
2019-05-22T05:37:22.188Z,18.00
2019-05-22T05:40:31.291Z,18.00
2019-05-22T05:43:00.415Z,18.00
2019-05-22T05:45:30.519Z,18.00
2019-05-22T05:48:00.240Z,18.00
2019-05-22T05:50:38.973Z,18.00
2019-05-22T05:53:01.852Z,18.00
2019-05-22T05:56:11.649Z,18.00
2019-05-22T05:58:41.606Z,18.00
2019-05-22T06:01:21.797Z,18.00
2019-05-22T06:03:51.276Z,18.00
2019-05-22T06:07:12.143Z,18.00
2019-05-22T06:09:41.693Z,18.00
2019-05-22T06:12:12.129Z,18.00
2019-05-22T06:14:42.070Z,18.00
2019-05-22T06:17:47.204Z,18.00
2019-05-22T06:20:19.084Z,18.00
2019-05-22T06:23:29.504Z,18.00
2019-05-22T06:25:59.267Z,18.00
2019-05-22T06:28:29.580Z,18.00
2019-05-22T06:31:00.742Z,18.00
2019-05-22T06:33:31.476Z,18.00
2019-05-22T06:36:02.904Z,18.00
2019-05-22T06:39:00.872Z,18.00
2019-05-22T06:41:32.888Z,18.00
2019-05-22T06:44:40.718Z,18.00
2019-05-22T06:47:13.463Z,18.00
2019-05-22T06:49:44.013Z,18.00
2019-05-22T06:52:13.059Z,18.00
2019-05-22T06:54:42.151Z,18.00
2019-05-22T06:57:13.656Z,18.00
2019-05-22T06:59:43.479Z,18.00
2019-05-22T07:02:13.965Z,18.00
2019-05-22T07:04:44.206Z,18.00
2019-05-22T07:07:15.265Z,18.00
2019-05-22T07:09:45.682Z,18.00
2019-05-22T07:12:19.766Z,18.00
2019-05-22T07:15:25.411Z,18.00
2019-05-22T07:17:55.655Z,18.00
2019-05-22T07:20:27.220Z,18.00
2019-05-22T07:22:57.994Z,18.00
2019-05-22T07:25:28.044Z,18.00
2019-05-22T07:27:58.501Z,18.00
2019-05-22T07:30:27.925Z,18.00
2019-05-22T07:32:57.287Z,18.00
2019-05-22T07:35:44.119Z,18.00
2019-05-22T07:37:58.077Z,18.00
2019-05-22T07:40:27.761Z,18.00
2019-05-22T07:42:56.977Z,18.00
2019-05-22T07:45:27.106Z,18.00
2019-05-22T07:47:57.172Z,18.00
2019-05-22T07:50:28.042Z,18.00
2019-05-22T07:52:57.406Z,18.00
2019-05-22T07:55:26.669Z,18.00
2019-05-22T07:58:05.864Z,18.00
2019-05-22T08:00:35.266Z,18.00
2019-05-22T08:03:04.373Z,18.00
2019-05-22T08:05:33.913Z,18.00
2019-05-22T08:08:04.151Z,18.00
2019-05-22T08:10:33.426Z,18.00
2019-05-22T08:13:03.946Z,18.00
2019-05-22T08:15:33.224Z,18.00
2019-05-22T08:18:02.329Z,18.00
2019-05-22T08:20:31.742Z,18.00
2019-05-22T08:23:01.253Z,18.00
2019-05-22T08:25:30.257Z,18.00
2019-05-22T08:27:59.352Z,18.00
2019-05-22T08:30:28.434Z,18.00
2019-05-22T08:32:58.139Z,18.00
2019-05-22T08:35:27.575Z,18.00
2019-05-22T08:37:56.705Z,18.00
2019-05-22T08:40:26.148Z,18.00
2019-05-22T08:42:55.427Z,18.00
2019-05-22T08:45:24.983Z,18.00
2019-05-22T08:47:54.134Z,18.10
2019-05-22T08:50:24.581Z,18.10
2019-05-22T08:52:53.942Z,18.10
2019-05-22T08:55:23.426Z,18.10
2019-05-22T08:57:52.571Z,18.10
2019-05-22T09:00:23.316Z,18.10
2019-05-22T09:02:52.397Z,18.10
2019-05-22T09:05:22.102Z,18.00
2019-05-22T09:07:51.430Z,18.10
2019-05-22T09:10:25.556Z,18.10
2019-05-22T09:12:52.491Z,18.10
2019-05-22T09:15:22.087Z,18.10
2019-05-22T09:17:51.155Z,18.10
2019-05-22T09:20:21.641Z,18.10
2019-05-22T09:22:51.283Z,18.10
2019-05-22T09:25:20.404Z,18.10
2019-05-22T09:27:49.452Z,18.10
2019-05-22T09:30:18.923Z,18.10
2019-05-22T09:32:48.134Z,18.10
2019-05-22T09:35:17.116Z,18.10
2019-05-22T09:37:46.328Z,18.10
2019-05-22T09:40:15.976Z,18.10
2019-05-22T09:42:45.429Z,18.10
2019-05-22T09:45:14.475Z,18.10
2019-05-22T09:47:43.519Z,18.10
2019-05-22T09:50:13.220Z,18.10
2019-05-22T09:52:56.219Z,18.10
2019-05-22T09:55:13.704Z,18.20
2019-05-22T09:57:42.697Z,18.20
2019-05-22T10:00:12.391Z,18.20
2019-05-22T10:02:41.787Z,18.20
2019-05-22T10:05:11.046Z,18.20
2019-05-22T10:07:57.081Z,18.20
2019-05-22T10:10:11.229Z,18.20
2019-05-22T10:12:40.426Z,18.20
2019-05-22T10:15:10.497Z,18.20
2019-05-22T10:17:41.538Z,18.20
2019-05-22T10:20:10.838Z,18.20
2019-05-22T10:22:40.232Z,18.20
2019-05-22T10:25:15.693Z,18.20
2019-05-22T10:27:40.554Z,18.20
2019-05-22T10:30:12.695Z,18.20
2019-05-22T10:32:41.817Z,18.20
2019-05-22T10:35:11.162Z,18.20
2019-05-22T10:37:40.993Z,18.20
2019-05-22T10:40:10.467Z,18.30
2019-05-22T10:42:44.463Z,18.30
2019-05-22T10:45:11.271Z,18.30
2019-05-22T10:47:40.475Z,18.30
2019-05-22T10:50:09.543Z,18.30
2019-05-22T10:52:38.535Z,18.30
2019-05-22T10:55:09.898Z,18.30
2019-05-22T10:57:40.874Z,18.30
2019-05-22T11:00:12.974Z,18.30
2019-05-22T11:02:42.096Z,18.30
2019-05-22T11:05:12.296Z,18.30
2019-05-22T11:07:41.610Z,18.30
2019-05-22T11:10:10.878Z,18.30
2019-05-22T11:12:39.949Z,18.30
2019-05-22T11:15:09.347Z,18.30
2019-05-22T11:17:38.973Z,18.30
2019-05-22T11:20:08.502Z,18.30
2019-05-22T11:22:38.058Z,18.30
2019-05-22T11:25:08.769Z,18.30
2019-05-22T11:27:38.110Z,18.30
2019-05-22T11:30:07.127Z,18.30
2019-05-22T11:32:36.226Z,18.30
2019-05-22T11:35:05.623Z,18.30
2019-05-22T11:37:34.993Z,18.30
2019-05-22T11:40:04.941Z,18.30
2019-05-22T11:42:34.053Z,18.30
2019-05-22T11:45:03.491Z,18.30
2019-05-22T11:47:33.082Z,18.30
2019-05-22T11:50:02.280Z,18.30
2019-05-22T11:52:31.667Z,18.30
2019-05-22T11:55:00.932Z,18.30
2019-05-22T11:57:30.298Z,18.30
2019-05-22T11:59:59.344Z,18.30
2019-05-22T12:02:29.041Z,18.30
2019-05-22T12:04:58.357Z,18.30
2019-05-22T12:07:27.454Z,18.30
2019-05-22T12:09:56.784Z,18.30
2019-05-22T12:12:26.409Z,18.30
2019-05-22T12:14:55.626Z,18.30
2019-05-22T12:17:37.404Z,18.30
2019-05-22T12:19:55.594Z,18.30
2019-05-22T12:22:24.626Z,18.30
2019-05-22T12:24:53.873Z,18.30
2019-05-22T12:27:22.986Z,18.30
2019-05-22T12:29:52.082Z,18.30
2019-05-22T12:32:21.575Z,18.30
2019-05-22T12:34:51.057Z,18.30
2019-05-22T12:37:20.420Z,18.30
2019-05-22T12:39:49.536Z,18.30
2019-05-22T12:42:19.986Z,18.30
2019-05-22T12:44:49.309Z,18.30
2019-05-22T12:47:19.491Z,18.30
2019-05-22T12:49:48.774Z,18.30
2019-05-22T12:52:18.327Z,18.30
2019-05-22T12:54:52.390Z,18.30
2019-05-22T12:57:18.473Z,18.30
2019-05-22T12:59:48.115Z,18.30
2019-05-22T13:02:17.743Z,18.30
2019-05-22T13:04:47.521Z,18.30
2019-05-22T13:07:16.877Z,18.30
2019-05-22T13:09:50.141Z,18.40
2019-05-22T13:12:23.248Z,18.40
2019-05-22T13:15:10.384Z,18.40
2019-05-22T13:17:41.046Z,18.40
2019-05-22T13:20:40.443Z,18.40
2019-05-22T13:22:58.226Z,18.40
2019-05-22T13:25:31.292Z,18.40
2019-05-22T13:28:06.073Z,18.40
2019-05-22T13:30:42.082Z,18.40
2019-05-22T13:33:23.614Z,18.40
2019-05-22T13:35:58.079Z,18.40
2019-05-22T13:38:32.093Z,18.40
2019-05-22T13:41:15.375Z,18.40
2019-05-22T13:43:45.291Z,18.40
2019-05-22T13:46:17.458Z,18.40
2019-05-22T13:48:49.678Z,18.40
2019-05-22T13:51:21.846Z,18.40
2019-05-22T13:53:51.759Z,18.40
2019-05-22T13:56:25.056Z,18.40
2019-05-22T13:58:51.858Z,18.40
2019-05-22T14:01:21.639Z,18.50
2019-05-22T14:03:51.330Z,18.40
2019-05-22T14:06:20.775Z,18.40
2019-05-22T14:08:50.133Z,18.40
2019-05-22T14:11:19.377Z,18.40
2019-05-22T14:13:49.435Z,18.40
2019-05-22T14:16:19.780Z,18.40
2019-05-22T14:18:48.988Z,18.40
2019-05-22T14:21:18.002Z,18.40
2019-05-22T14:23:47.058Z,18.40
2019-05-22T14:26:16.194Z,18.40
2019-05-22T14:28:46.052Z,18.40
2019-05-22T14:31:15.508Z,18.40
2019-05-22T14:33:44.689Z,18.40
2019-05-22T14:36:13.786Z,18.40
2019-05-22T14:38:43.089Z,18.40
2019-05-22T14:41:12.255Z,18.40
2019-05-22T14:43:41.688Z,18.40
2019-05-22T14:46:12.260Z,18.40
2019-05-22T14:48:41.456Z,18.40
2019-05-22T14:51:10.598Z,18.40
2019-05-22T14:53:41.604Z,18.40
2019-05-22T14:56:11.241Z,18.40
2019-05-22T14:58:40.878Z,18.40
2019-05-22T15:01:10.570Z,18.40
2019-05-22T15:03:39.723Z,18.40
2019-05-22T15:06:09.126Z,18.40
2019-05-22T15:08:38.271Z,18.40
2019-05-22T15:11:07.439Z,18.40
2019-05-22T15:13:36.809Z,18.40
2019-05-22T15:16:05.972Z,18.40
2019-05-22T15:18:35.160Z,18.40
2019-05-22T15:21:06.071Z,18.30
2019-05-22T15:23:35.195Z,18.40
2019-05-22T15:26:04.354Z,18.30
2019-05-22T15:28:33.792Z,18.30
2019-05-22T15:31:03.178Z,18.30
2019-05-22T15:33:33.930Z,18.30
2019-05-22T15:36:08.034Z,18.30
2019-05-22T15:38:38.263Z,18.30
2019-05-22T15:41:07.711Z,18.30
2019-05-22T15:43:37.006Z,18.30
2019-05-22T15:46:08.549Z,18.30
2019-05-22T15:48:38.306Z,18.30
2019-05-22T15:51:08.233Z,18.30
2019-05-22T15:53:37.524Z,18.30
2019-05-22T15:56:07.381Z,18.30
2019-05-22T15:58:37.280Z,18.30
2019-05-22T16:01:06.652Z,18.30
2019-05-22T16:03:35.907Z,18.30
2019-05-22T16:06:05.385Z,18.30
2019-05-22T16:08:34.808Z,18.30
2019-05-22T16:11:03.985Z,18.30
2019-05-22T16:13:34.760Z,18.30
2019-05-22T16:16:04.047Z,18.30
2019-05-22T16:18:35.551Z,18.30
2019-05-22T16:21:05.587Z,18.30
2019-05-22T16:23:36.231Z,18.30
2019-05-22T16:26:06.206Z,18.30
2019-05-22T16:28:36.434Z,18.30
2019-05-22T16:31:06.088Z,18.30
2019-05-22T16:33:35.754Z,18.30
2019-05-22T16:36:05.682Z,18.30
2019-05-22T16:38:35.888Z,18.30
2019-05-22T16:41:05.471Z,18.30
2019-05-22T16:43:47.889Z,18.30
2019-05-22T16:46:07.050Z,18.30
2019-05-22T16:48:37.134Z,18.30
2019-05-22T16:51:06.511Z,18.30
2019-05-22T16:53:36.166Z,18.30
2019-05-22T16:56:05.452Z,18.30
2019-05-22T16:58:35.572Z,18.30
2019-05-22T17:01:04.844Z,18.30
2019-05-22T17:03:36.716Z,18.30
2019-05-22T17:06:05.899Z,18.30
2019-05-22T17:08:35.249Z,18.30
2019-05-22T17:11:05.180Z,18.30
2019-05-22T17:13:34.853Z,18.30
2019-05-22T17:16:04.816Z,18.30
2019-05-22T17:18:46.672Z,18.30
2019-05-22T17:21:06.047Z,18.30
2019-05-22T17:23:35.300Z,18.30
2019-05-22T17:26:05.124Z,18.30
2019-05-22T17:28:34.415Z,18.30
2019-05-22T17:31:03.620Z,18.30
2019-05-22T17:33:33.202Z,18.30
2019-05-22T17:36:17.808Z,18.30
2019-05-22T17:38:46.988Z,18.30
2019-05-22T17:41:16.734Z,18.30
2019-05-22T17:43:45.816Z,18.30
2019-05-22T17:46:15.148Z,18.30
2019-05-22T17:48:44.719Z,18.30
2019-05-22T17:51:14.233Z,18.30
2019-05-22T17:53:43.333Z,18.30
2019-05-22T17:56:12.469Z,18.30
2019-05-22T17:58:41.634Z,18.30
2019-05-22T18:01:11.831Z,18.30
2019-05-22T18:03:41.486Z,18.30
2019-05-22T18:06:10.706Z,18.30
2019-05-22T18:08:40.465Z,18.30
2019-05-22T18:11:09.788Z,18.30
2019-05-22T18:13:53.781Z,18.30
2019-05-22T18:16:23.109Z,18.30
2019-05-22T18:18:52.245Z,18.30
2019-05-22T18:21:21.382Z,18.30
2019-05-22T18:23:50.947Z,18.30
2019-05-22T18:26:20.975Z,18.30
2019-05-22T18:28:50.231Z,18.30
2019-05-22T18:31:19.396Z,18.30
2019-05-22T18:33:48.534Z,18.30
2019-05-22T18:36:17.774Z,18.30
2019-05-22T18:38:46.793Z,18.30
2019-05-22T18:41:15.943Z,18.30
2019-05-22T18:43:45.271Z,18.30
2019-05-22T18:46:14.637Z,18.20
2019-05-22T18:48:43.829Z,18.20
2019-05-22T18:51:13.235Z,18.30
2019-05-22T18:53:42.365Z,18.20
2019-05-22T18:56:11.749Z,18.20
2019-05-22T18:58:41.459Z,18.20
2019-05-22T19:01:10.868Z,18.20
2019-05-22T19:03:40.041Z,18.20
2019-05-22T19:06:09.250Z,18.20
2019-05-22T19:08:38.566Z,18.20
2019-05-22T19:11:07.994Z,18.20
2019-05-22T19:13:37.264Z,18.20
2019-05-22T19:16:06.856Z,18.20
2019-05-22T19:18:36.204Z,18.20
2019-05-22T19:21:05.408Z,18.20
2019-05-22T19:23:35.025Z,18.20
2019-05-22T19:26:05.854Z,18.20
2019-05-22T19:28:43.372Z,18.20
2019-05-22T19:31:06.238Z,18.20
2019-05-22T19:33:35.467Z,18.20
2019-05-22T19:36:05.034Z,18.20
2019-05-22T19:38:34.627Z,18.20
2019-05-22T19:41:03.932Z,18.20
2019-05-22T19:43:33.255Z,18.10
2019-05-22T19:46:02.661Z,18.10
2019-05-22T19:48:31.804Z,18.10
2019-05-22T19:51:02.055Z,18.10
2019-05-22T19:53:31.432Z,18.10
2019-05-22T19:56:00.619Z,18.10
2019-05-22T19:58:30.100Z,18.10
2019-05-22T20:00:59.698Z,18.10
2019-05-22T20:03:29.350Z,18.10
2019-05-22T20:05:58.421Z,18.10
2019-05-22T20:08:27.812Z,18.10
2019-05-22T20:10:56.892Z,18.10
2019-05-22T20:13:26.461Z,18.10
2019-05-22T20:15:55.674Z,18.10
2019-05-22T20:18:24.951Z,18.10
2019-05-22T20:20:55.596Z,18.10
2019-05-22T20:23:35.227Z,18.10
2019-05-22T20:25:55.876Z,18.10
2019-05-22T20:28:25.747Z,18.10
2019-05-22T20:30:55.437Z,18.10
2019-05-22T20:33:26.959Z,18.10
2019-05-22T20:35:55.545Z,18.10
2019-05-22T20:38:25.474Z,18.10
2019-05-22T20:40:54.714Z,18.00
2019-05-22T20:43:24.157Z,18.00
2019-05-22T20:45:53.415Z,18.00
2019-05-22T20:48:25.740Z,18.00
2019-05-22T20:50:55.478Z,18.00
2019-05-22T20:53:25.480Z,18.00
2019-05-22T20:55:54.549Z,18.00
2019-05-22T20:58:23.977Z,18.00
2019-05-22T21:00:53.280Z,18.00
2019-05-22T21:03:23.504Z,18.00
2019-05-22T21:05:52.840Z,18.00
2019-05-22T21:08:25.224Z,18.00
2019-05-22T21:10:56.535Z,18.00
2019-05-22T21:13:26.371Z,18.00
2019-05-22T21:15:55.960Z,18.00
2019-05-22T21:18:36.783Z,18.00
2019-05-22T21:21:06.092Z,18.00
2019-05-22T21:23:35.711Z,18.00
2019-05-22T21:26:05.230Z,18.00
2019-05-22T21:28:34.741Z,18.00
2019-05-22T21:31:04.066Z,18.00
2019-05-22T21:33:33.685Z,18.00
2019-05-22T21:36:04.345Z,18.00
2019-05-22T21:38:33.419Z,18.00
2019-05-22T21:41:02.765Z,18.00
2019-05-22T21:43:31.975Z,18.00
2019-05-22T21:46:01.224Z,18.00
2019-05-22T21:48:31.856Z,18.00
2019-05-22T21:51:01.631Z,18.00
2019-05-22T21:53:31.039Z,18.00
2019-05-22T21:56:04.640Z,18.00
2019-05-22T21:58:30.765Z,17.90
2019-05-22T22:01:25.021Z,17.90
2019-05-22T22:04:01.048Z,17.90
2019-05-22T22:06:33.132Z,17.90
2019-05-22T22:09:00.809Z,17.90
2019-05-22T22:11:31.469Z,17.90
2019-05-22T22:14:01.410Z,17.90
2019-05-22T22:16:30.937Z,17.90
2019-05-22T22:19:01.174Z,17.90
2019-05-22T22:21:30.771Z,17.90
2019-05-22T22:24:01.198Z,17.90
2019-05-22T22:26:30.634Z,17.90
2019-05-22T22:28:59.711Z,17.90
2019-05-22T22:31:30.316Z,17.90
2019-05-22T22:34:07.015Z,17.90
2019-05-22T22:36:36.341Z,17.90
2019-05-22T22:39:08.001Z,17.90
2019-05-22T22:41:37.467Z,17.90
2019-05-22T22:44:07.957Z,17.90
2019-05-22T22:46:45.659Z,17.90
2019-05-22T22:49:17.303Z,17.90
2019-05-22T22:51:46.783Z,17.90
2019-05-22T22:54:16.710Z,17.90
2019-05-22T22:56:46.452Z,17.90
2019-05-22T22:59:15.540Z,17.90
2019-05-22T23:01:45.473Z,17.90
2019-05-22T23:04:14.821Z,17.90
2019-05-22T23:06:45.142Z,17.90
2019-05-22T23:09:15.303Z,17.80
2019-05-22T23:11:45.642Z,17.80
2019-05-22T23:14:16.087Z,17.90
2019-05-22T23:16:45.085Z,17.80
2019-05-22T23:19:32.131Z,17.80
2019-05-22T23:22:01.240Z,17.80
2019-05-22T23:24:31.030Z,17.80
2019-05-22T23:27:00.953Z,17.80
2019-05-22T23:29:30.843Z,17.80
2019-05-22T23:32:00.669Z,17.80
2019-05-22T23:34:30.975Z,17.80
2019-05-22T23:37:00.630Z,17.80
2019-05-22T23:39:30.708Z,17.80
2019-05-22T23:42:01.176Z,17.80
2019-05-22T23:44:30.428Z,17.80
2019-05-22T23:46:59.496Z,17.80
2019-05-22T23:49:28.657Z,17.80
2019-05-22T23:51:57.885Z,17.80
2019-05-22T23:54:27.328Z,17.80
2019-05-22T23:56:56.986Z,17.80
2019-05-22T23:59:27.757Z,17.80
